createdAt,value
2017-08-03T00:01:04.513Z,16.47
2017-08-03T00:03:32.030Z,15.43
2017-08-03T00:06:00.226Z,14.97
2017-08-03T00:08:27.736Z,14.93
2017-08-03T00:10:55.336Z,16.50
2017-08-03T00:13:22.877Z,15.50
2017-08-03T00:15:50.382Z,15.60
2017-08-03T00:18:17.878Z,16.00
2017-08-03T00:20:45.502Z,15.50
2017-08-03T00:23:12.994Z,14.83
2017-08-03T00:25:40.529Z,14.67
2017-08-03T00:28:08.797Z,14.83
2017-08-03T00:30:36.690Z,15.50
2017-08-03T00:33:04.189Z,15.40
2017-08-03T00:35:52.873Z,13.57
2017-08-03T00:38:20.503Z,15.63
2017-08-03T00:40:48.041Z,15.10
2017-08-03T00:43:15.585Z,17.00
2017-08-03T00:45:43.673Z,13.67
2017-08-03T00:48:11.252Z,14.50
2017-08-03T00:50:38.749Z,15.10
2017-08-03T00:53:06.264Z,15.00
2017-08-03T00:55:33.767Z,13.50
2017-08-03T00:58:01.292Z,14.50
2017-08-03T01:00:28.790Z,14.20
2017-08-03T01:02:56.329Z,14.57
2017-08-03T01:05:23.835Z,14.60
2017-08-03T01:07:52.094Z,15.17
2017-08-03T01:10:19.606Z,13.67
2017-08-03T01:12:47.164Z,14.13
2017-08-03T01:15:14.679Z,14.57
2017-08-03T01:17:42.950Z,14.10
2017-08-03T01:20:10.477Z,15.50
2017-08-03T01:22:37.974Z,15.10
2017-08-03T01:25:06.270Z,14.27
2017-08-03T01:27:34.529Z,14.70
2017-08-03T01:30:02.822Z,14.83
2017-08-03T01:32:31.082Z,15.07
2017-08-03T01:34:58.599Z,13.60
2017-08-03T01:37:26.128Z,15.70
2017-08-03T01:39:53.647Z,14.73
2017-08-03T01:42:21.158Z,14.70
2017-08-03T01:44:48.660Z,15.30
2017-08-03T01:47:16.174Z,15.47
2017-08-03T01:49:43.673Z,15.80
2017-08-03T01:52:11.202Z,14.53
2017-08-03T01:54:38.701Z,14.50
2017-08-03T01:57:06.325Z,15.67
2017-08-03T01:59:33.832Z,16.30
2017-08-03T02:02:01.330Z,14.57
2017-08-03T02:04:28.844Z,14.47
2017-08-03T02:06:56.359Z,14.50
2017-08-03T02:09:23.874Z,14.03
2017-08-03T02:11:52.199Z,14.33
2017-08-03T02:14:19.718Z,14.00
2017-08-03T02:16:47.983Z,14.17
2017-08-03T02:19:15.506Z,13.80
2017-08-03T02:21:43.006Z,13.90
2017-08-03T02:24:10.543Z,14.60
2017-08-03T02:26:38.066Z,14.38
2017-08-03T02:29:06.448Z,13.80
2017-08-03T02:31:34.137Z,12.70
2017-08-03T02:34:01.671Z,12.67
2017-08-03T02:36:29.316Z,12.20
2017-08-03T02:38:56.939Z,12.73
2017-08-03T02:41:24.496Z,12.70
2017-08-03T02:43:52.291Z,12.20
2017-08-03T02:46:20.819Z,13.03
2017-08-03T02:48:48.441Z,12.03
2017-08-03T02:51:16.830Z,13.40
2017-08-03T02:53:44.530Z,14.67
2017-08-03T02:56:12.248Z,13.63
2017-08-03T02:58:39.800Z,13.10
2017-08-03T03:01:08.089Z,13.20
2017-08-03T03:03:36.370Z,12.70
2017-08-03T03:06:03.869Z,13.97
2017-08-03T03:08:31.412Z,12.77
2017-08-03T03:10:58.974Z,13.43
2017-08-03T03:13:26.490Z,12.80
2017-08-03T03:15:54.757Z,12.13
2017-08-03T03:18:22.297Z,12.30
2017-08-03T03:20:49.797Z,10.93
2017-08-03T03:23:17.309Z,11.77
2017-08-03T03:25:44.821Z,12.20
2017-08-03T03:28:12.325Z,12.20
2017-08-03T03:30:39.862Z,12.40
2017-08-03T03:33:07.361Z,12.10
2017-08-03T03:35:34.873Z,14.20
2017-08-03T03:38:02.382Z,12.33
2017-08-03T03:40:29.898Z,12.43
2017-08-03T03:42:57.402Z,12.40
2017-08-03T03:45:24.922Z,12.13
2017-08-03T03:47:52.425Z,11.77
2017-08-03T03:50:19.926Z,10.53
2017-08-03T03:52:47.438Z,11.83
2017-08-03T03:55:14.937Z,11.43
2017-08-03T03:57:42.449Z,10.77
2017-08-03T04:00:09.990Z,12.20
2017-08-03T04:02:37.510Z,11.10
2017-08-03T04:05:05.769Z,10.43
2017-08-03T04:07:34.050Z,11.77
2017-08-03T04:10:02.309Z,11.07
2017-08-03T04:12:29.846Z,12.20
2017-08-03T04:14:57.349Z,10.30
2017-08-03T04:17:25.614Z,12.17
2017-08-03T04:19:53.226Z,10.93
2017-08-03T04:22:20.732Z,10.93
2017-08-03T04:24:48.250Z,10.60
2017-08-03T04:27:15.769Z,10.70
2017-08-03T04:29:44.050Z,11.07
2017-08-03T04:32:12.329Z,10.80
2017-08-03T04:34:39.866Z,10.00
2017-08-03T04:37:07.371Z,10.50
2017-08-03T04:39:35.085Z,10.40
2017-08-03T04:42:02.704Z,10.13
2017-08-03T04:44:30.217Z,10.20
2017-08-03T04:46:58.353Z,10.50
2017-08-03T04:49:27.945Z,10.13
2017-08-03T04:51:55.704Z,9.32
2017-08-03T04:54:23.214Z,10.27
2017-08-03T04:56:50.738Z,9.77
2017-08-03T04:59:18.295Z,9.53
2017-08-03T05:01:45.797Z,9.80
2017-08-03T05:04:13.444Z,9.80
2017-08-03T05:06:40.986Z,9.50
2017-08-03T05:09:08.506Z,8.90
2017-08-03T05:11:36.001Z,10.10
2017-08-03T05:14:03.514Z,9.20
2017-08-03T05:16:31.782Z,10.27
2017-08-03T05:19:00.090Z,10.03
2017-08-03T05:21:27.585Z,9.57
2017-08-03T05:23:55.077Z,9.00
2017-08-03T05:26:22.626Z,8.80
2017-08-03T05:28:50.118Z,8.63
2017-08-03T05:31:17.634Z,9.10
2017-08-03T05:33:45.127Z,9.07
2017-08-03T05:36:13.403Z,9.57
2017-08-03T05:38:42.382Z,9.40
2017-08-03T05:41:09.917Z,8.90
2017-08-03T05:43:37.416Z,9.93
2017-08-03T05:46:05.691Z,8.97
2017-08-03T05:48:33.214Z,9.00
2017-08-03T05:51:00.712Z,10.00
2017-08-03T05:53:28.984Z,8.97
2017-08-03T05:55:56.581Z,9.93
2017-08-03T05:58:24.118Z,9.07
2017-08-03T06:00:52.386Z,9.13
2017-08-03T06:03:20.680Z,9.43
2017-08-03T06:05:48.178Z,9.50
2017-08-03T06:08:15.678Z,8.70
2017-08-03T06:10:43.957Z,10.33
2017-08-03T06:13:12.217Z,9.80
2017-08-03T06:15:39.831Z,8.83
2017-08-03T06:18:07.326Z,8.90
2017-08-03T06:20:34.855Z,8.60
2017-08-03T06:23:02.345Z,7.70
2017-08-03T06:25:29.862Z,8.60
2017-08-03T06:27:57.358Z,7.73
2017-08-03T06:30:24.845Z,7.30
2017-08-03T06:32:53.122Z,6.70
2017-08-03T06:35:21.378Z,5.97
2017-08-03T06:37:48.899Z,6.50
2017-08-03T06:40:16.394Z,5.57
2017-08-03T06:42:43.999Z,6.00
2017-08-03T06:45:12.248Z,5.83
2017-08-03T06:47:39.782Z,5.50
2017-08-03T06:50:07.267Z,6.23
2017-08-03T06:52:34.757Z,5.30
2017-08-03T06:55:02.271Z,5.30
2017-08-03T06:57:29.895Z,4.83
2017-08-03T06:59:58.567Z,5.47
2017-08-03T07:02:26.058Z,4.60
2017-08-03T07:04:53.566Z,5.53
2017-08-03T07:07:21.837Z,4.83
2017-08-03T07:09:50.134Z,5.00
2017-08-03T07:12:17.640Z,5.27
2017-08-03T07:14:45.137Z,5.00
2017-08-03T07:17:13.418Z,5.40
2017-08-03T07:19:40.942Z,7.93
2017-08-03T07:22:08.449Z,5.30
2017-08-03T07:24:36.605Z,4.33
2017-08-03T07:27:04.881Z,9.60
2017-08-03T07:29:33.146Z,6.10
2017-08-03T07:32:00.679Z,6.03
2017-08-03T07:34:28.176Z,7.87
2017-08-03T07:36:56.441Z,5.53
2017-08-03T07:39:23.946Z,5.40
2017-08-03T07:41:51.433Z,5.70
2017-08-03T07:44:18.939Z,5.53
2017-08-03T07:46:47.197Z,5.37
2017-08-03T07:49:14.714Z,6.07
2017-08-03T07:51:42.201Z,5.93
2017-08-03T07:54:09.723Z,6.03
2017-08-03T07:56:37.225Z,6.50
2017-08-03T07:59:04.713Z,6.27
2017-08-03T08:01:32.234Z,5.20
2017-08-03T08:03:59.721Z,5.50
2017-08-03T08:06:27.998Z,6.03
2017-08-03T08:08:56.278Z,5.30
2017-08-03T08:11:24.562Z,5.60
2017-08-03T08:13:52.873Z,4.87
2017-08-03T08:16:20.390Z,5.30
2017-08-03T08:18:47.990Z,5.23
2017-08-03T08:21:15.485Z,5.90
2017-08-03T08:23:42.995Z,5.20
2017-08-03T08:26:11.259Z,5.47
2017-08-03T08:28:39.552Z,5.50
2017-08-03T08:31:07.159Z,4.90
2017-08-03T08:33:34.662Z,4.23
2017-08-03T08:36:02.156Z,3.77
2017-08-03T08:38:29.729Z,4.60
2017-08-03T08:40:57.227Z,5.20
2017-08-03T08:43:24.722Z,5.40
2017-08-03T08:45:52.298Z,5.17
2017-08-03T08:48:19.794Z,4.70
2017-08-03T08:50:47.297Z,4.50
2017-08-03T08:53:14.798Z,4.47
2017-08-03T08:55:42.318Z,5.30
2017-08-03T08:58:09.809Z,4.50
2017-08-03T09:00:37.351Z,5.93
2017-08-03T09:03:04.965Z,5.47
2017-08-03T09:05:32.453Z,5.60
2017-08-03T09:07:59.963Z,6.30
2017-08-03T09:10:27.458Z,5.60
2017-08-03T09:12:55.725Z,6.63
2017-08-03T09:15:23.994Z,5.97
2017-08-03T09:17:51.510Z,5.77
2017-08-03T09:20:30.213Z,6.32
2017-08-03T09:23:00.232Z,6.47
2017-08-03T09:25:28.301Z,7.20
2017-08-03T09:27:56.271Z,6.97
2017-08-03T09:30:24.548Z,6.33
2017-08-03T09:33:04.293Z,7.13
2017-08-03T09:35:32.263Z,6.10
2017-08-03T09:38:00.130Z,6.55
2017-08-03T09:40:29.150Z,7.00
2017-08-03T09:48:55.495Z,6.10
2017-08-03T09:51:23.658Z,6.83
2017-08-03T09:53:51.741Z,7.23
2017-08-03T09:56:19.915Z,6.23
2017-08-03T09:58:50.853Z,6.93
2017-08-03T10:01:19.232Z,5.93
2017-08-03T10:03:48.432Z,7.60
2017-08-03T10:06:16.688Z,5.90
2017-08-03T10:08:44.849Z,7.30
2017-08-03T10:11:13.055Z,7.30
2017-08-03T10:13:40.566Z,7.40
2017-08-03T10:16:08.714Z,6.97
2017-08-03T10:18:36.226Z,6.47
2017-08-03T10:21:03.718Z,6.63
2017-08-03T10:23:31.296Z,6.53
2017-08-03T10:25:58.804Z,6.10
2017-08-03T10:28:27.079Z,6.73
2017-08-03T10:30:54.609Z,6.80
2017-08-03T10:33:22.105Z,7.43
2017-08-03T10:35:49.625Z,6.63
2017-08-03T10:38:17.126Z,7.07
2017-08-03T10:40:44.645Z,6.30
2017-08-03T10:43:12.135Z,7.03
2017-08-03T10:45:39.647Z,7.50
2017-08-03T10:48:07.167Z,10.10
2017-08-03T10:50:35.442Z,7.43
2017-08-03T10:53:03.746Z,6.63
2017-08-03T10:55:31.245Z,7.40
2017-08-03T10:57:58.750Z,7.33
2017-08-03T11:00:27.044Z,6.90
2017-08-03T11:02:54.563Z,6.43
2017-08-03T11:05:23.013Z,7.80
2017-08-03T11:07:50.526Z,7.67
2017-08-03T11:10:18.805Z,6.87
2017-08-03T11:12:47.071Z,6.20
2017-08-03T11:15:14.663Z,7.27
2017-08-03T11:17:42.546Z,6.90
2017-08-03T11:20:10.078Z,6.97
2017-08-03T11:22:38.371Z,6.30
2017-08-03T11:25:05.857Z,7.00
2017-08-03T11:27:33.366Z,6.53
2017-08-03T11:30:01.707Z,7.40
2017-08-03T11:32:29.230Z,6.80
2017-08-03T11:34:56.754Z,6.70
2017-08-03T11:37:25.035Z,6.50
2017-08-03T11:39:53.300Z,6.13
2017-08-03T11:42:20.794Z,6.10
2017-08-03T11:44:48.305Z,6.30
2017-08-03T11:47:15.799Z,6.37
2017-08-03T11:49:44.086Z,6.07
2017-08-03T11:52:11.595Z,5.63
2017-08-03T11:54:39.126Z,6.63
2017-08-03T11:57:06.633Z,5.40
2017-08-03T11:59:34.126Z,5.70
2017-08-03T12:02:01.642Z,6.03
2017-08-03T12:04:29.138Z,6.57
2017-08-03T12:06:56.657Z,6.40
2017-08-03T12:09:24.946Z,5.57
2017-08-03T12:11:52.450Z,5.93
2017-08-03T12:14:19.941Z,5.90
2017-08-03T12:16:47.438Z,5.83
2017-08-03T12:19:15.713Z,6.33
2017-08-03T12:21:43.976Z,5.23
2017-08-03T12:24:11.498Z,6.00
2017-08-03T12:26:38.990Z,5.73
2017-08-03T12:29:06.519Z,6.43
2017-08-03T12:31:34.014Z,6.10
2017-08-03T12:34:01.529Z,5.40
2017-08-03T12:36:29.042Z,4.90
2017-08-03T12:38:56.544Z,5.77
2017-08-03T12:41:24.108Z,5.80
2017-08-03T12:43:51.605Z,5.67
2017-08-03T12:46:19.530Z,5.67
2017-08-03T12:48:47.027Z,6.20
2017-08-03T12:51:14.534Z,5.67
2017-08-03T12:53:42.050Z,6.00
2017-08-03T12:56:09.548Z,6.20
2017-08-03T12:58:37.061Z,6.00
2017-08-03T13:01:04.550Z,6.10
2017-08-03T13:03:32.849Z,5.90
2017-08-03T13:06:00.344Z,6.43
2017-08-03T13:08:27.833Z,7.10
2017-08-03T13:10:55.355Z,6.00
2017-08-03T13:13:22.875Z,5.07
2017-08-03T13:15:51.146Z,5.80
2017-08-03T13:18:19.409Z,5.70
2017-08-03T13:20:46.935Z,6.67
2017-08-03T13:23:14.426Z,6.13
2017-08-03T13:25:42.689Z,5.90
2017-08-03T13:28:10.190Z,6.37
2017-08-03T13:30:37.682Z,5.20
2017-08-03T13:33:05.349Z,5.57
2017-08-03T13:35:32.847Z,5.83
2017-08-03T13:38:01.049Z,4.83
2017-08-03T13:40:28.546Z,5.50
2017-08-03T13:42:56.039Z,6.50
2017-08-03T13:45:23.549Z,5.50
2017-08-03T13:47:51.071Z,4.80
2017-08-03T13:50:19.450Z,5.10
2017-08-03T13:52:47.702Z,5.73
2017-08-03T13:55:15.214Z,5.67
2017-08-03T13:57:42.722Z,5.43
2017-08-03T14:00:10.230Z,4.93
2017-08-03T14:02:37.747Z,5.37
2017-08-03T14:05:05.254Z,5.62
2017-08-03T14:07:32.761Z,5.40
2017-08-03T14:10:00.253Z,6.30
2017-08-03T14:12:27.768Z,5.80
2017-08-03T14:14:55.256Z,5.70
2017-08-03T14:17:23.543Z,5.87
2017-08-03T14:19:51.801Z,5.67
2017-08-03T14:22:19.323Z,5.10
2017-08-03T14:24:46.885Z,6.03
2017-08-03T14:27:14.394Z,6.50
2017-08-03T14:29:42.762Z,6.10
2017-08-03T14:32:10.524Z,6.10
2017-08-03T14:34:43.486Z,5.27
2017-08-03T14:37:28.356Z,5.27
2017-08-03T14:42:41.417Z,5.73
2017-08-03T14:48:12.939Z,5.40
2017-08-03T14:50:40.479Z,7.03
2017-08-03T14:53:08.753Z,5.77
2017-08-03T14:55:37.022Z,5.60
2017-08-03T14:58:05.299Z,5.30
2017-08-03T15:00:32.869Z,6.07
2017-08-03T15:03:01.137Z,5.40
2017-08-03T15:05:29.389Z,5.50
2017-08-03T15:07:56.889Z,7.87
2017-08-03T15:10:24.381Z,5.97
2017-08-03T15:12:51.893Z,5.50
2017-08-03T15:15:20.151Z,5.30
2017-08-03T15:17:47.713Z,5.10
2017-08-03T15:20:15.205Z,5.77
2017-08-03T15:22:42.702Z,4.90
2017-08-03T15:25:10.209Z,5.47
2017-08-03T15:27:37.717Z,5.30
2017-08-03T15:30:05.225Z,5.23
2017-08-03T15:32:33.491Z,5.23
2017-08-03T15:35:00.994Z,5.17
2017-08-03T15:37:28.490Z,4.90
2017-08-03T15:39:56.001Z,5.60
2017-08-03T15:42:23.497Z,6.50
2017-08-03T15:44:51.010Z,5.93
2017-08-03T15:47:19.281Z,6.30
2017-08-03T15:49:47.537Z,6.00
2017-08-03T15:52:15.054Z,6.90
2017-08-03T15:54:42.548Z,6.93
2017-08-03T15:57:10.070Z,7.03
2017-08-03T15:59:37.569Z,6.70
2017-08-03T16:02:05.086Z,7.07
2017-08-03T16:04:32.643Z,7.73
2017-08-03T16:07:00.147Z,7.53
2017-08-03T16:09:27.638Z,8.23
2017-08-03T16:11:55.918Z,7.30
2017-08-03T16:14:23.410Z,7.30
2017-08-03T16:16:50.906Z,7.87
2017-08-03T16:19:18.518Z,8.43
2017-08-03T16:21:46.014Z,10.90
2017-08-03T16:24:13.535Z,8.30
2017-08-03T16:26:41.030Z,7.17
2017-08-03T16:29:08.534Z,7.47
2017-08-03T16:31:36.021Z,7.77
2017-08-03T16:34:03.534Z,6.73
2017-08-03T16:36:31.914Z,7.47
2017-08-03T16:39:00.217Z,6.50
2017-08-03T16:41:27.713Z,6.97
2017-08-03T16:43:55.248Z,6.90
2017-08-03T16:46:22.759Z,7.97
2017-08-03T16:48:50.250Z,6.90
2017-08-03T16:51:17.783Z,7.60
2017-08-03T16:53:45.269Z,7.37
2017-08-03T16:56:12.786Z,7.63
2017-08-03T16:58:40.281Z,7.30
2017-08-03T17:01:08.582Z,7.10
2017-08-03T17:03:36.073Z,7.80
2017-08-03T17:06:03.591Z,7.50
2017-08-03T17:08:31.098Z,9.63
2017-08-03T17:10:58.598Z,7.73
2017-08-03T17:13:26.132Z,7.37
2017-08-03T17:15:53.678Z,8.00
2017-08-03T17:18:21.200Z,8.00
2017-08-03T17:20:48.722Z,8.27
2017-08-03T17:23:16.234Z,8.87
2017-08-03T17:25:43.736Z,7.90
2017-08-03T17:28:12.083Z,7.40
2017-08-03T17:30:39.615Z,8.10
2017-08-03T17:33:07.185Z,8.20
2017-08-03T17:35:34.721Z,8.57
2017-08-03T17:38:02.210Z,8.60
2017-08-03T17:40:29.727Z,7.80
2017-08-03T17:42:57.258Z,8.70
2017-08-03T17:45:24.773Z,9.33
2017-08-03T17:47:52.277Z,8.17
2017-08-03T17:50:19.794Z,8.90
2017-08-03T17:52:47.302Z,9.17
2017-08-03T17:55:14.850Z,8.70
2017-08-03T17:57:42.350Z,8.43
2017-08-03T18:00:09.883Z,8.77
2017-08-03T18:02:37.387Z,8.40
2017-08-03T18:05:04.881Z,9.20
2017-08-03T18:07:32.401Z,9.87
2017-08-03T18:09:59.906Z,9.40
2017-08-03T18:12:27.426Z,10.73
2017-08-03T18:14:54.930Z,11.50
2017-08-03T18:17:22.761Z,11.30
2017-08-03T18:19:50.258Z,9.60
2017-08-03T18:22:17.761Z,9.83
2017-08-03T18:24:45.278Z,9.80
2017-08-03T18:27:12.833Z,8.80
2017-08-03T18:29:40.508Z,10.30
2017-08-03T18:32:08.064Z,11.33
2017-08-03T18:34:35.694Z,9.83
2017-08-03T18:37:03.280Z,11.10
2017-08-03T18:42:23.545Z,11.32
2017-08-03T18:44:51.137Z,10.20
2017-08-03T18:47:18.641Z,13.27
2017-08-03T18:49:46.169Z,12.40
2017-08-03T18:52:13.686Z,12.53
2017-08-03T18:54:41.278Z,12.50
2017-08-03T18:57:08.784Z,12.53
2017-08-03T18:59:36.328Z,13.90
2017-08-03T19:02:03.900Z,14.33
2017-08-03T19:04:31.467Z,12.57
2017-08-03T19:06:59.803Z,11.52
2017-08-03T19:09:27.366Z,11.93
2017-08-03T19:11:54.910Z,12.20
2017-08-03T19:14:22.418Z,10.90
2017-08-03T19:16:49.937Z,11.17
2017-08-03T19:19:17.446Z,10.80
2017-08-03T19:21:45.721Z,10.10
2017-08-03T19:24:13.241Z,10.10
2017-08-03T19:26:40.805Z,11.10
2017-08-03T19:29:08.388Z,10.60
2017-08-03T19:31:35.903Z,11.57
2017-08-03T19:34:03.519Z,11.47
2017-08-03T19:36:31.022Z,13.03
2017-08-03T19:38:58.553Z,10.63
2017-08-03T19:41:26.863Z,9.93
2017-08-03T19:43:54.381Z,10.40
2017-08-03T19:46:22.719Z,9.90
2017-08-03T19:48:50.266Z,10.70
2017-08-03T19:51:17.769Z,9.90
2017-08-03T19:53:45.323Z,10.57
2017-08-03T19:56:12.895Z,11.90
2017-08-03T19:58:40.774Z,11.93
2017-08-03T20:01:09.057Z,11.97
2017-08-03T20:03:37.333Z,12.30
2017-08-03T20:06:05.625Z,11.50
2017-08-03T20:08:49.807Z,11.07
2017-08-03T20:11:17.329Z,11.20
2017-08-03T20:13:44.842Z,11.40
2017-08-03T20:16:12.366Z,11.00
2017-08-03T20:18:39.878Z,13.13
2017-08-03T20:21:07.425Z,11.03
2017-08-03T20:23:34.933Z,13.40
2017-08-03T20:26:02.483Z,13.73
2017-08-03T20:28:30.306Z,15.30
2017-08-03T20:30:58.257Z,14.50
2017-08-03T20:33:25.824Z,12.87
2017-08-03T20:35:53.334Z,13.20
2017-08-03T20:38:21.667Z,12.07
2017-08-03T20:40:49.183Z,12.30
2017-08-03T20:43:16.738Z,11.93
2017-08-03T20:45:45.865Z,13.60
2017-08-03T20:48:13.386Z,12.20
2017-08-03T20:50:40.925Z,11.27
2017-08-03T20:53:08.458Z,11.30
2017-08-03T20:55:44.893Z,11.50
2017-08-03T20:58:12.465Z,12.73
2017-08-03T21:00:39.984Z,12.10
2017-08-03T21:03:08.273Z,12.60
2017-08-03T21:05:36.593Z,11.53
2017-08-03T21:08:05.134Z,10.77
2017-08-03T21:10:33.446Z,11.80
2017-08-03T21:13:00.961Z,11.70
2017-08-03T21:15:29.238Z,11.30
2017-08-03T21:17:57.674Z,12.00
2017-08-03T21:20:25.195Z,11.43
2017-08-03T21:22:53.623Z,11.00
2017-08-03T21:25:21.124Z,12.17
2017-08-03T21:27:48.654Z,11.03
2017-08-03T21:30:17.091Z,11.53
2017-08-03T21:32:44.623Z,11.70
2017-08-03T21:35:12.134Z,10.73
2017-08-03T21:37:39.663Z,12.33
2017-08-03T21:40:07.198Z,11.67
2017-08-03T21:42:34.711Z,12.30
2017-08-03T21:45:02.897Z,11.73
2017-08-03T21:47:30.415Z,11.30
2017-08-03T21:49:58.137Z,12.87
2017-08-03T21:52:26.416Z,11.60
2017-08-03T21:54:55.270Z,13.17
2017-08-03T21:57:22.834Z,12.00
2017-08-03T21:59:50.366Z,14.17
2017-08-03T22:02:17.941Z,12.67
2017-08-03T22:04:45.471Z,12.53
2017-08-03T22:07:12.985Z,12.40
2017-08-03T22:09:40.511Z,13.90
2017-08-03T22:12:08.018Z,13.27
2017-08-03T22:14:36.332Z,12.20
2017-08-03T22:17:03.845Z,13.03
2017-08-03T22:19:31.357Z,12.30
2017-08-03T22:21:58.885Z,13.30
2017-08-03T22:24:27.161Z,12.17
2017-08-03T22:26:55.350Z,12.80
2017-08-03T22:29:22.861Z,12.30
2017-08-03T22:31:50.394Z,12.13
2017-08-03T22:34:17.904Z,11.83
2017-08-03T22:36:46.226Z,13.63
2017-08-03T22:39:13.814Z,13.83
2017-08-03T22:41:41.343Z,13.80
2017-08-03T22:44:08.881Z,12.63
2017-08-03T22:46:36.470Z,13.10
2017-08-03T22:49:04.003Z,12.50
2017-08-03T22:51:31.518Z,13.07
2017-08-03T22:53:59.056Z,13.07
2017-08-03T22:56:26.570Z,12.77
2017-08-03T22:58:54.870Z,13.30
2017-08-03T23:01:22.406Z,13.83
2017-08-03T23:03:50.686Z,13.10
2017-08-03T23:06:19.015Z,14.93
2017-08-03T23:08:48.552Z,13.50
2017-08-03T23:11:16.083Z,13.10
2017-08-03T23:13:43.601Z,12.93
2017-08-03T23:16:11.130Z,13.10
2017-08-03T23:18:38.641Z,13.17
2017-08-03T23:21:06.220Z,14.27
2017-08-03T23:23:33.749Z,13.30
2017-08-03T23:26:01.253Z,12.90
2017-08-03T23:28:28.778Z,12.80
2017-08-03T23:30:56.293Z,13.67
2017-08-03T23:33:23.826Z,13.10
2017-08-03T23:35:51.341Z,14.17
2017-08-03T23:38:18.874Z,13.20
2017-08-03T23:40:47.157Z,15.03
2017-08-03T23:43:15.446Z,13.30
2017-08-03T23:45:43.717Z,12.27
2017-08-03T23:48:11.257Z,12.67
2017-08-03T23:50:38.765Z,12.93
2017-08-03T23:53:06.299Z,13.50
2017-08-03T23:55:34.639Z,12.90
2017-08-03T23:58:02.253Z,11.67
